sensor_id;sensor_type;location;lat;lon;timestamp;pressure;altitude;pressure_sealevel;temperature;humidity
59417;BME280;45222;52.458;20.914;2022-12-10T00:01:52;99860.57;;;-0.11;88.47
59417;BME280;45222;52.458;20.914;2022-12-10T00:05:40;99863.12;;;-0.06;88.58
59417;BME280;45222;52.458;20.914;2022-12-10T00:09:27;99864.33;;;-0.05;88.66
59417;BME280;45222;52.458;20.914;2022-12-10T00:13:14;99861.85;;;-0.02;88.52
59417;BME280;45222;52.458;20.914;2022-12-10T00:17:02;99860.59;;;-0.00;88.32
59417;BME280;45222;52.458;20.914;2022-12-10T00:20:49;99857.27;;;0.01;88.30
59417;BME280;45222;52.458;20.914;2022-12-10T00:24:36;99854.48;;;-0.01;88.25
59417;BME280;45222;52.458;20.914;2022-12-10T00:28:23;99849.45;;;-0.04;88.14
59417;BME280;45222;52.458;20.914;2022-12-10T00:32:11;99846.32;;;-0.05;88.43
59417;BME280;45222;52.458;20.914;2022-12-10T00:36:02;99847.02;;;-0.05;88.61
59417;BME280;45222;52.458;20.914;2022-12-10T00:39:50;99845.27;;;-0.04;88.40
59417;BME280;45222;52.458;20.914;2022-12-10T00:43:37;99844.81;;;-0.09;88.25
59417;BME280;45222;52.458;20.914;2022-12-10T00:47:24;99844.12;;;-0.10;88.44
59417;BME280;45222;52.458;20.914;2022-12-10T00:51:13;99848.50;;;-0.10;88.76
59417;BME280;45222;52.458;20.914;2022-12-10T00:55:00;99853.02;;;-0.09;88.47
59417;BME280;45222;52.458;20.914;2022-12-10T00:58:49;99855.48;;;-0.10;88.46
59417;BME280;45222;52.458;20.914;2022-12-10T01:02:36;99856.75;;;-0.13;88.53
59417;BME280;45222;52.458;20.914;2022-12-10T01:06:26;99861.64;;;-0.13;88.50
59417;BME280;45222;52.458;20.914;2022-12-10T01:10:14;99857.19;;;-0.20;88.74
59417;BME280;45222;52.458;20.914;2022-12-10T01:14:01;99854.77;;;-0.23;88.90
59417;BME280;45222;52.458;20.914;2022-12-10T01:17:48;99850.58;;;-0.23;88.98
59417;BME280;45222;52.458;20.914;2022-12-10T01:21:36;99850.40;;;-0.22;88.96
59417;BME280;45222;52.458;20.914;2022-12-10T01:25:23;99846.35;;;-0.20;88.84
59417;BME280;45222;52.458;20.914;2022-12-10T01:29:12;99843.42;;;-0.23;89.08
59417;BME280;45222;52.458;20.914;2022-12-10T01:32:59;99838.55;;;-0.26;89.05
59417;BME280;45222;52.458;20.914;2022-12-10T01:36:50;99835.23;;;-0.25;89.15
59417;BME280;45222;52.458;20.914;2022-12-10T01:40:39;99834.66;;;-0.21;89.24
59417;BME280;45222;52.458;20.914;2022-12-10T01:44:59;99828.40;;;-0.24;89.21
59417;BME280;45222;52.458;20.914;2022-12-10T01:48:47;99820.05;;;-0.27;89.18
59417;BME280;45222;52.458;20.914;2022-12-10T01:52:35;99819.42;;;-0.33;89.19
59417;BME280;45222;52.458;20.914;2022-12-10T01:56:23;99815.24;;;-0.34;89.36
59417;BME280;45222;52.458;20.914;2022-12-10T02:00:12;99806.88;;;-0.35;89.40
59417;BME280;45222;52.458;20.914;2022-12-10T02:04:06;99805.81;;;-0.34;89.32
59417;BME280;45222;52.458;20.914;2022-12-10T02:08:05;99810.59;;;-0.39;89.51
59417;BME280;45222;52.458;20.914;2022-12-10T02:12:08;99812.16;;;-0.38;89.55
59417;BME280;45222;52.458;20.914;2022-12-10T02:16:00;99821.42;;;-0.39;89.70
59417;BME280;45222;52.458;20.914;2022-12-10T02:19:58;99821.70;;;-0.34;89.85
59417;BME280;45222;52.458;20.914;2022-12-10T02:23:51;99822.40;;;-0.32;89.76
59417;BME280;45222;52.458;20.914;2022-12-10T02:27:46;99820.48;;;-0.32;89.53
59417;BME280;45222;52.458;20.914;2022-12-10T02:31:37;99823.81;;;-0.34;89.59
59417;BME280;45222;52.458;20.914;2022-12-10T02:35:28;99819.91;;;-0.30;89.68
59417;BME280;45222;52.458;20.914;2022-12-10T02:39:20;99819.91;;;-0.28;89.74
59417;BME280;45222;52.458;20.914;2022-12-10T02:43:13;99827.35;;;-0.23;89.57
59417;BME280;45222;52.458;20.914;2022-12-10T02:47:02;99824.34;;;-0.21;89.57
59417;BME280;45222;52.458;20.914;2022-12-10T02:50:49;99825.23;;;-0.22;89.60
59417;BME280;45222;52.458;20.914;2022-12-10T02:54:39;99822.65;;;-0.25;89.39
59417;BME280;45222;52.458;20.914;2022-12-10T02:58:34;99821.61;;;-0.26;89.30
59417;BME280;45222;52.458;20.914;2022-12-10T03:02:31;99826.55;;;-0.30;89.47
59417;BME280;45222;52.458;20.914;2022-12-10T03:06:26;99835.13;;;-0.31;89.45
59417;BME280;45222;52.458;20.914;2022-12-10T03:10:20;99833.59;;;-0.33;89.62
59417;BME280;45222;52.458;20.914;2022-12-10T03:14:15;99830.42;;;-0.33;89.51
59417;BME280;45222;52.458;20.914;2022-12-10T03:18:04;99828.48;;;-0.31;89.62
59417;BME280;45222;52.458;20.914;2022-12-10T03:21:53;99823.55;;;-0.28;89.54
59417;BME280;45222;52.458;20.914;2022-12-10T03:25:43;99823.58;;;-0.29;89.61
59417;BME280;45222;52.458;20.914;2022-12-10T03:29:34;99821.17;;;-0.33;89.65
59417;BME280;45222;52.458;20.914;2022-12-10T03:33:23;99825.05;;;-0.36;89.71
59417;BME280;45222;52.458;20.914;2022-12-10T03:37:11;99829.11;;;-0.39;89.75
59417;BME280;45222;52.458;20.914;2022-12-10T03:40:59;99828.74;;;-0.38;89.87
59417;BME280;45222;52.458;20.914;2022-12-10T03:44:48;99832.63;;;-0.42;89.95
59417;BME280;45222;52.458;20.914;2022-12-10T03:48:36;99830.21;;;-0.43;89.95
59417;BME280;45222;52.458;20.914;2022-12-10T03:52:23;99831.00;;;-0.36;89.91
59417;BME280;45222;52.458;20.914;2022-12-10T03:56:10;99831.48;;;-0.32;90.03
59417;BME280;45222;52.458;20.914;2022-12-10T03:59:58;99831.68;;;-0.35;89.99
59417;BME280;45222;52.458;20.914;2022-12-10T04:03:45;99829.41;;;-0.35;90.05
59417;BME280;45222;52.458;20.914;2022-12-10T04:07:32;99833.66;;;-0.38;90.21
59417;BME280;45222;52.458;20.914;2022-12-10T04:11:20;99833.61;;;-0.35;90.01
59417;BME280;45222;52.458;20.914;2022-12-10T04:15:09;99834.46;;;-0.34;90.25
59417;BME280;45222;52.458;20.914;2022-12-10T04:19:15;99841.48;;;-0.36;90.24
59417;BME280;45222;52.458;20.914;2022-12-10T04:23:02;99841.85;;;-0.37;90.23
59417;BME280;45222;52.458;20.914;2022-12-10T04:27:09;99843.92;;;-0.36;90.30
59417;BME280;45222;52.458;20.914;2022-12-10T04:30:57;99839.02;;;-0.35;90.15
59417;BME280;45222;52.458;20.914;2022-12-10T04:34:44;99836.61;;;-0.38;90.34
59417;BME280;45222;52.458;20.914;2022-12-10T04:38:32;99838.40;;;-0.42;90.45
59417;BME280;45222;52.458;20.914;2022-12-10T04:42:20;99843.15;;;-0.44;90.49
59417;BME280;45222;52.458;20.914;2022-12-10T04:46:07;99846.20;;;-0.49;90.74
59417;BME280;45222;52.458;20.914;2022-12-10T04:49:55;99847.27;;;-0.52;90.70
59417;BME280;45222;52.458;20.914;2022-12-10T04:53:42;99839.79;;;-0.56;90.71
59417;BME280;45222;52.458;20.914;2022-12-10T04:57:29;99840.08;;;-0.50;90.69
59417;BME280;45222;52.458;20.914;2022-12-10T05:01:17;99839.77;;;-0.53;90.66
59417;BME280;45222;52.458;20.914;2022-12-10T05:05:06;99842.41;;;-0.56;90.59
59417;BME280;45222;52.458;20.914;2022-12-10T05:08:54;99842.62;;;-0.59;90.55
59417;BME280;45222;52.458;20.914;2022-12-10T05:12:41;99842.97;;;-0.59;90.69
59417;BME280;45222;52.458;20.914;2022-12-10T05:16:31;99845.13;;;-0.65;90.75
59417;BME280;45222;52.458;20.914;2022-12-10T05:20:19;99848.13;;;-0.67;90.88
59417;BME280;45222;52.458;20.914;2022-12-10T05:24:07;99853.20;;;-0.69;91.02
59417;BME280;45222;52.458;20.914;2022-12-10T05:27:54;99856.30;;;-0.64;90.91
59417;BME280;45222;52.458;20.914;2022-12-10T05:31:42;99864.48;;;-0.61;90.81
59417;BME280;45222;52.458;20.914;2022-12-10T05:35:29;99863.97;;;-0.62;90.64
59417;BME280;45222;52.458;20.914;2022-12-10T05:39:16;99867.17;;;-0.69;90.71
59417;BME280;45222;52.458;20.914;2022-12-10T05:43:04;99872.29;;;-0.72;90.74
59417;BME280;45222;52.458;20.914;2022-12-10T05:46:53;99878.20;;;-0.71;90.72
59417;BME280;45222;52.458;20.914;2022-12-10T05:50:40;99880.98;;;-0.71;90.71
59417;BME280;45222;52.458;20.914;2022-12-10T05:54:27;99882.71;;;-0.69;90.65
59417;BME280;45222;52.458;20.914;2022-12-10T05:58:15;99883.77;;;-0.70;90.53
59417;BME280;45222;52.458;20.914;2022-12-10T06:02:03;99883.60;;;-0.70;90.58
59417;BME280;45222;52.458;20.914;2022-12-10T06:05:50;99879.80;;;-0.73;90.59
59417;BME280;45222;52.458;20.914;2022-12-10T06:09:37;99877.69;;;-0.71;90.67
59417;BME280;45222;52.458;20.914;2022-12-10T06:13:25;99876.13;;;-0.72;90.70
59417;BME280;45222;52.458;20.914;2022-12-10T06:17:12;99878.39;;;-0.73;90.84
59417;BME280;45222;52.458;20.914;2022-12-10T06:20:59;99875.42;;;-0.73;91.03
59417;BME280;45222;52.458;20.914;2022-12-10T06:24:49;99879.27;;;-0.74;91.09
59417;BME280;45222;52.458;20.914;2022-12-10T06:28:36;99879.81;;;-0.75;91.26
59417;BME280;45222;52.458;20.914;2022-12-10T06:32:24;99881.59;;;-0.77;91.25
59417;BME280;45222;52.458;20.914;2022-12-10T06:36:13;99887.48;;;-0.73;91.43
59417;BME280;45222;52.458;20.914;2022-12-10T06:40:01;99892.85;;;-0.69;91.31
59417;BME280;45222;52.458;20.914;2022-12-10T06:43:48;99894.77;;;-0.69;91.34
59417;BME280;45222;52.458;20.914;2022-12-10T06:47:36;99898.98;;;-0.70;91.17
59417;BME280;45222;52.458;20.914;2022-12-10T06:51:23;99901.39;;;-0.67;91.33
59417;BME280;45222;52.458;20.914;2022-12-10T06:55:11;99898.08;;;-0.68;91.29
59417;BME280;45222;52.458;20.914;2022-12-10T06:58:58;99905.40;;;-0.66;91.42
59417;BME280;45222;52.458;20.914;2022-12-10T07:02:45;99902.95;;;-0.66;91.41
59417;BME280;45222;52.458;20.914;2022-12-10T07:06:33;99908.12;;;-0.60;91.32
59417;BME280;45222;52.458;20.914;2022-12-10T07:10:21;99904.59;;;-0.57;91.18
59417;BME280;45222;52.458;20.914;2022-12-10T07:14:08;99907.23;;;-0.57;91.20
59417;BME280;45222;52.458;20.914;2022-12-10T07:17:58;99902.86;;;-0.58;91.15
59417;BME280;45222;52.458;20.914;2022-12-10T07:21:45;99902.52;;;-0.59;91.10
59417;BME280;45222;52.458;20.914;2022-12-10T07:25:33;99901.16;;;-0.61;91.20
59417;BME280;45222;52.458;20.914;2022-12-10T07:29:21;99900.42;;;-0.58;91.23
59417;BME280;45222;52.458;20.914;2022-12-10T07:33:08;99904.73;;;-0.53;90.88
59417;BME280;45222;52.458;20.914;2022-12-10T07:36:56;99905.60;;;-0.52;90.85
59417;BME280;45222;52.458;20.914;2022-12-10T07:40:43;99905.61;;;-0.54;90.94
59417;BME280;45222;52.458;20.914;2022-12-10T07:44:30;99901.38;;;-0.48;91.00
59417;BME280;45222;52.458;20.914;2022-12-10T07:48:17;99903.33;;;-0.51;91.03
59417;BME280;45222;52.458;20.914;2022-12-10T07:52:05;99906.49;;;-0.54;91.13
59417;BME280;45222;52.458;20.914;2022-12-10T07:55:52;99908.95;;;-0.54;91.20
59417;BME280;45222;52.458;20.914;2022-12-10T07:59:39;99915.59;;;-0.56;91.22
59417;BME280;45222;52.458;20.914;2022-12-10T08:03:27;99917.14;;;-0.53;91.24
59417;BME280;45222;52.458;20.914;2022-12-10T08:07:14;99916.41;;;-0.49;91.26
59417;BME280;45222;52.458;20.914;2022-12-10T08:11:03;99912.02;;;-0.48;91.31
59417;BME280;45222;52.458;20.914;2022-12-10T08:14:50;99915.70;;;-0.49;91.30
59417;BME280;45222;52.458;20.914;2022-12-10T08:18:38;99915.64;;;-0.44;91.27
59417;BME280;45222;52.458;20.914;2022-12-10T08:22:25;99913.19;;;-0.42;91.12
59417;BME280;45222;52.458;20.914;2022-12-10T08:26:14;99916.17;;;-0.43;91.26
59417;BME280;45222;52.458;20.914;2022-12-10T08:30:03;99916.34;;;-0.43;91.14
59417;BME280;45222;52.458;20.914;2022-12-10T08:33:51;99915.83;;;-0.45;91.19
59417;BME280;45222;52.458;20.914;2022-12-10T08:37:41;99917.42;;;-0.47;91.26
59417;BME280;45222;52.458;20.914;2022-12-10T08:41:29;99910.61;;;-0.46;91.31
59417;BME280;45222;52.458;20.914;2022-12-10T08:45:16;99906.75;;;-0.46;91.32
59417;BME280;45222;52.458;20.914;2022-12-10T08:49:04;99901.80;;;-0.41;91.26
59417;BME280;45222;52.458;20.914;2022-12-10T08:52:52;99901.60;;;-0.37;91.34
59417;BME280;45222;52.458;20.914;2022-12-10T08:56:40;99900.31;;;-0.31;91.21
59417;BME280;45222;52.458;20.914;2022-12-10T09:00:27;99901.73;;;-0.35;91.24
59417;BME280;45222;52.458;20.914;2022-12-10T09:04:14;99902.27;;;-0.35;91.38
59417;BME280;45222;52.458;20.914;2022-12-10T09:08:02;99906.79;;;-0.33;91.38
59417;BME280;45222;52.458;20.914;2022-12-10T09:11:50;99909.55;;;-0.30;91.35
59417;BME280;45222;52.458;20.914;2022-12-10T09:15:37;99908.33;;;-0.30;91.36
59417;BME280;45222;52.458;20.914;2022-12-10T09:19:25;99912.65;;;-0.28;91.34
59417;BME280;45222;52.458;20.914;2022-12-10T09:23:12;99916.29;;;-0.23;91.27
59417;BME280;45222;52.458;20.914;2022-12-10T09:27:00;99923.38;;;-0.18;91.03
59417;BME280;45222;52.458;20.914;2022-12-10T09:30:56;99919.73;;;-0.18;91.27
59417;BME280;45222;52.458;20.914;2022-12-10T09:34:43;99924.37;;;-0.11;91.16
59417;BME280;45222;52.458;20.914;2022-12-10T09:38:30;99923.45;;;-0.08;91.02
59417;BME280;45222;52.458;20.914;2022-12-10T09:42:28;99922.73;;;-0.07;90.92
59417;BME280;45222;52.458;20.914;2022-12-10T09:46:26;99916.60;;;-0.04;91.04
59417;BME280;45222;52.458;20.914;2022-12-10T09:50:23;99906.74;;;0.01;90.88
59417;BME280;45222;52.458;20.914;2022-12-10T09:54:21;99899.42;;;-0.03;90.84
59417;BME280;45222;52.458;20.914;2022-12-10T09:58:21;99902.06;;;-0.03;90.78
59417;BME280;45222;52.458;20.914;2022-12-10T10:02:21;99908.90;;;-0.05;90.74
59417;BME280;45222;52.458;20.914;2022-12-10T10:06:13;99914.66;;;-0.04;90.85
59417;BME280;45222;52.458;20.914;2022-12-10T10:10:03;99921.30;;;-0.04;90.89
59417;BME280;45222;52.458;20.914;2022-12-10T10:13:54;99921.07;;;0.02;90.70
59417;BME280;45222;52.458;20.914;2022-12-10T10:17:42;99922.08;;;0.05;90.57
59417;BME280;45222;52.458;20.914;2022-12-10T10:21:35;99928.39;;;0.04;90.40
59417;BME280;45222;52.458;20.914;2022-12-10T10:25:24;99924.53;;;0.04;90.47
59417;BME280;45222;52.458;20.914;2022-12-10T10:29:18;99922.91;;;0.07;90.22
59417;BME280;45222;52.458;20.914;2022-12-10T10:33:18;99918.63;;;0.14;90.47
59417;BME280;45222;52.458;20.914;2022-12-10T10:37:16;99918.95;;;0.30;90.39
59417;BME280;45222;52.458;20.914;2022-12-10T10:41:06;99920.24;;;0.36;89.88
59417;BME280;45222;52.458;20.914;2022-12-10T10:44:55;99915.23;;;0.33;89.48
59417;BME280;45222;52.458;20.914;2022-12-10T10:48:42;99914.16;;;0.34;89.52
59417;BME280;45222;52.458;20.914;2022-12-10T10:52:34;99910.88;;;0.32;89.32
59417;BME280;45222;52.458;20.914;2022-12-10T10:56:24;99907.45;;;0.38;89.54
59417;BME280;45222;52.458;20.914;2022-12-10T11:00:20;99903.77;;;0.39;89.21
59417;BME280;45222;52.458;20.914;2022-12-10T11:04:09;99895.91;;;0.38;89.43
59417;BME280;45222;52.458;20.914;2022-12-10T11:08:00;99885.25;;;0.38;89.28
59417;BME280;45222;52.458;20.914;2022-12-10T11:11:51;99880.08;;;0.33;89.07
59417;BME280;45222;52.458;20.914;2022-12-10T11:15:44;99874.27;;;0.35;88.98
59417;BME280;45222;52.458;20.914;2022-12-10T11:19:31;99867.00;;;0.30;88.81
59417;BME280;45222;52.458;20.914;2022-12-10T11:23:18;99866.46;;;0.31;89.07
59417;BME280;45222;52.458;20.914;2022-12-10T11:27:08;99868.86;;;0.35;88.62
59417;BME280;45222;52.458;20.914;2022-12-10T11:31:10;99866.14;;;0.41;88.66
59417;BME280;45222;52.458;20.914;2022-12-10T11:35:06;99860.89;;;0.52;88.46
59417;BME280;45222;52.458;20.914;2022-12-10T11:39:05;99858.09;;;0.53;88.40
59417;BME280;45222;52.458;20.914;2022-12-10T11:43:08;99860.52;;;0.54;87.94
59417;BME280;45222;52.458;20.914;2022-12-10T11:47:27;99858.11;;;0.51;87.78
59417;BME280;45222;52.458;20.914;2022-12-10T11:51:22;99857.48;;;0.46;87.53
59417;BME280;45222;52.458;20.914;2022-12-10T11:55:27;99863.24;;;0.47;87.74
59417;BME280;45222;52.458;20.914;2022-12-10T11:59:26;99872.85;;;0.48;87.72
59417;BME280;45222;52.458;20.914;2022-12-10T12:03:39;99878.45;;;0.47;87.79
59417;BME280;45222;52.458;20.914;2022-12-10T12:07:41;99880.86;;;0.51;87.62
59417;BME280;45222;52.458;20.914;2022-12-10T12:11:45;99877.56;;;0.49;87.32
59417;BME280;45222;52.458;20.914;2022-12-10T12:15:42;99876.20;;;0.34;87.43
59417;BME280;45222;52.458;20.914;2022-12-10T12:19:34;99875.05;;;0.30;87.67
59417;BME280;45222;52.458;20.914;2022-12-10T12:23:26;99883.08;;;0.32;87.98
59417;BME280;45222;52.458;20.914;2022-12-10T12:27:22;99885.49;;;0.34;87.54
59417;BME280;45222;52.458;20.914;2022-12-10T12:31:14;99885.17;;;0.30;87.56
59417;BME280;45222;52.458;20.914;2022-12-10T12:35:09;99878.94;;;0.26;87.63
59417;BME280;45222;52.458;20.914;2022-12-10T12:39:09;99883.48;;;0.27;87.60
59417;BME280;45222;52.458;20.914;2022-12-10T12:43:03;99885.98;;;0.24;87.67
59417;BME280;45222;52.458;20.914;2022-12-10T12:46:50;99887.21;;;0.22;87.87
59417;BME280;45222;52.458;20.914;2022-12-10T12:50:43;99884.43;;;0.21;87.92
59417;BME280;45222;52.458;20.914;2022-12-10T12:54:31;99884.70;;;0.15;87.71
59417;BME280;45222;52.458;20.914;2022-12-10T12:58:35;99886.13;;;0.12;88.08
59417;BME280;45222;52.458;20.914;2022-12-10T13:02:42;99888.71;;;0.16;87.92
59417;BME280;45222;52.458;20.914;2022-12-10T13:06:33;99894.08;;;0.19;87.67
59417;BME280;45222;52.458;20.914;2022-12-10T13:10:29;99908.27;;;0.17;87.41
59417;BME280;45222;52.458;20.914;2022-12-10T13:14:32;99917.05;;;0.15;87.61
59417;BME280;45222;52.458;20.914;2022-12-10T13:18:36;99923.09;;;0.21;87.62
59417;BME280;45222;52.458;20.914;2022-12-10T13:22:58;99927.21;;;0.26;87.56
59417;BME280;45222;52.458;20.914;2022-12-10T13:27:04;99933.02;;;0.23;86.96
59417;BME280;45222;52.458;20.914;2022-12-10T13:31:22;99935.35;;;0.19;87.11
59417;BME280;45222;52.458;20.914;2022-12-10T13:35:30;99942.85;;;0.21;86.88
59417;BME280;45222;52.458;20.914;2022-12-10T13:39:32;99945.71;;;0.17;86.76
59417;BME280;45222;52.458;20.914;2022-12-10T13:43:29;99949.27;;;0.11;86.65
59417;BME280;45222;52.458;20.914;2022-12-10T13:47:48;99954.19;;;0.09;86.72
59417;BME280;45222;52.458;20.914;2022-12-10T13:51:49;99963.02;;;0.02;86.49
59417;BME280;45222;52.458;20.914;2022-12-10T13:55:44;99963.91;;;0.01;86.66
59417;BME280;45222;52.458;20.914;2022-12-10T13:59:41;99966.84;;;0.04;86.56
59417;BME280;45222;52.458;20.914;2022-12-10T14:03:57;99964.19;;;0.07;86.58
59417;BME280;45222;52.458;20.914;2022-12-10T14:07:50;99960.79;;;-0.02;86.49
59417;BME280;45222;52.458;20.914;2022-12-10T14:11:43;99961.06;;;-0.11;86.66
59417;BME280;45222;52.458;20.914;2022-12-10T14:15:35;99958.39;;;-0.21;86.57
59417;BME280;45222;52.458;20.914;2022-12-10T14:19:26;99953.76;;;-0.30;86.31
59417;BME280;45222;52.458;20.914;2022-12-10T14:23:25;99950.14;;;-0.35;86.47
59417;BME280;45222;52.458;20.914;2022-12-10T14:27:27;99951.23;;;-0.39;86.32
59417;BME280;45222;52.458;20.914;2022-12-10T14:31:17;99952.16;;;-0.44;86.61
59417;BME280;45222;52.458;20.914;2022-12-10T14:35:12;99952.52;;;-0.43;86.30
59417;BME280;45222;52.458;20.914;2022-12-10T14:39:01;99952.39;;;-0.49;86.33
59417;BME280;45222;52.458;20.914;2022-12-10T14:42:48;99953.46;;;-0.52;86.45
59417;BME280;45222;52.458;20.914;2022-12-10T14:46:36;99954.85;;;-0.51;86.57
59417;BME280;45222;52.458;20.914;2022-12-10T14:50:23;99956.23;;;-0.49;86.30
59417;BME280;45222;52.458;20.914;2022-12-10T14:54:27;99950.67;;;-0.52;86.30
59417;BME280;45222;52.458;20.914;2022-12-10T14:58:20;99954.10;;;-0.46;86.38
59417;BME280;45222;52.458;20.914;2022-12-10T15:02:16;99956.58;;;-0.49;86.18
59417;BME280;45222;52.458;20.914;2022-12-10T15:06:09;99960.79;;;-0.51;86.27
59417;BME280;45222;52.458;20.914;2022-12-10T15:09:57;99959.74;;;-0.52;86.18
59417;BME280;45222;52.458;20.914;2022-12-10T15:13:47;99952.41;;;-0.51;86.25
59417;BME280;45222;52.458;20.914;2022-12-10T15:17:41;99956.26;;;-0.53;86.13
59417;BME280;45222;52.458;20.914;2022-12-10T15:21:28;99954.41;;;-0.60;86.18
59417;BME280;45222;52.458;20.914;2022-12-10T15:25:21;99955.88;;;-0.67;86.00
59417;BME280;45222;52.458;20.914;2022-12-10T15:29:39;99943.84;;;-0.70;86.10
59417;BME280;45222;52.458;20.914;2022-12-10T15:33:33;99930.98;;;-0.76;86.25
59417;BME280;45222;52.458;20.914;2022-12-10T15:37:25;99937.66;;;-0.79;86.19
59417;BME280;45222;52.458;20.914;2022-12-10T15:41:43;99939.02;;;-0.77;86.07
59417;BME280;45222;52.458;20.914;2022-12-10T15:45:39;99942.73;;;-0.80;85.91
59417;BME280;45222;52.458;20.914;2022-12-10T15:49:27;99948.89;;;-0.87;86.00
59417;BME280;45222;52.458;20.914;2022-12-10T15:53:16;99957.63;;;-0.88;86.16
59417;BME280;45222;52.458;20.914;2022-12-10T15:57:13;99961.45;;;-0.85;86.00
59417;BME280;45222;52.458;20.914;2022-12-10T16:01:02;99952.89;;;-0.87;86.17
59417;BME280;45222;52.458;20.914;2022-12-10T16:04:49;99963.71;;;-0.85;86.00
59417;BME280;45222;52.458;20.914;2022-12-10T16:08:37;99967.38;;;-0.84;85.84
59417;BME280;45222;52.458;20.914;2022-12-10T16:12:24;99948.04;;;-0.89;86.01
59417;BME280;45222;52.458;20.914;2022-12-10T16:16:11;99949.73;;;-0.85;86.15
59417;BME280;45222;52.458;20.914;2022-12-10T16:20:00;99961.61;;;-0.84;85.97
59417;BME280;45222;52.458;20.914;2022-12-10T16:23:56;99971.89;;;-0.83;86.14
59417;BME280;45222;52.458;20.914;2022-12-10T16:27:44;99973.97;;;-0.78;86.02
59417;BME280;45222;52.458;20.914;2022-12-10T16:31:31;99987.70;;;-0.71;86.16
59417;BME280;45222;52.458;20.914;2022-12-10T16:35:19;99987.84;;;-0.68;86.05
59417;BME280;45222;52.458;20.914;2022-12-10T16:39:06;99990.98;;;-0.69;85.83
59417;BME280;45222;52.458;20.914;2022-12-10T16:42:55;99998.00;;;-0.72;86.02
59417;BME280;45222;52.458;20.914;2022-12-10T16:46:43;99990.65;;;-0.71;85.82
59417;BME280;45222;52.458;20.914;2022-12-10T16:50:30;99993.81;;;-0.73;85.86
59417;BME280;45222;52.458;20.914;2022-12-10T16:54:18;100006.54;;;-0.70;85.84
59417;BME280;45222;52.458;20.914;2022-12-10T16:58:08;100014.36;;;-0.66;86.17
59417;BME280;45222;52.458;20.914;2022-12-10T17:01:56;100022.17;;;-0.59;86.07
59417;BME280;45222;52.458;20.914;2022-12-10T17:05:43;100019.55;;;-0.60;85.99
59417;BME280;45222;52.458;20.914;2022-12-10T17:09:31;100008.42;;;-0.65;85.92
59417;BME280;45222;52.458;20.914;2022-12-10T17:13:18;99998.13;;;-0.67;85.89
59417;BME280;45222;52.458;20.914;2022-12-10T17:17:10;100004.10;;;-0.71;86.13
59417;BME280;45222;52.458;20.914;2022-12-10T17:20:57;99998.00;;;-0.73;86.11
59417;BME280;45222;52.458;20.914;2022-12-10T17:24:44;100012.38;;;-0.77;85.93
59417;BME280;45222;52.458;20.914;2022-12-10T17:28:32;100006.09;;;-0.78;86.12
59417;BME280;45222;52.458;20.914;2022-12-10T17:32:21;99989.15;;;-0.78;86.11
59417;BME280;45222;52.458;20.914;2022-12-10T17:36:10;100006.96;;;-0.80;86.27
59417;BME280;45222;52.458;20.914;2022-12-10T17:39:57;99996.84;;;-0.81;86.17
59417;BME280;45222;52.458;20.914;2022-12-10T17:43:45;99987.58;;;-0.78;86.17
59417;BME280;45222;52.458;20.914;2022-12-10T17:47:34;99994.23;;;-0.81;86.10
59417;BME280;45222;52.458;20.914;2022-12-10T17:51:21;99994.91;;;-0.79;86.07
59417;BME280;45222;52.458;20.914;2022-12-10T17:55:09;99995.61;;;-0.78;86.26
59417;BME280;45222;52.458;20.914;2022-12-10T17:58:57;100002.02;;;-0.73;86.04
59417;BME280;45222;52.458;20.914;2022-12-10T18:02:44;100005.67;;;-0.73;85.90
59417;BME280;45222;52.458;20.914;2022-12-10T18:06:32;100007.42;;;-0.72;85.92
59417;BME280;45222;52.458;20.914;2022-12-10T18:10:25;100008.63;;;-0.70;86.10
59417;BME280;45222;52.458;20.914;2022-12-10T18:14:13;100015.56;;;-0.64;85.92
59417;BME280;45222;52.458;20.914;2022-12-10T18:18:01;100007.02;;;-0.66;85.74
59417;BME280;45222;52.458;20.914;2022-12-10T18:21:49;100006.00;;;-0.68;85.77
59417;BME280;45222;52.458;20.914;2022-12-10T18:25:37;99991.16;;;-0.67;85.83
59417;BME280;45222;52.458;20.914;2022-12-10T18:29:24;99994.27;;;-0.63;86.09
59417;BME280;45222;52.458;20.914;2022-12-10T18:33:14;99997.36;;;-0.59;85.99
59417;BME280;45222;52.458;20.914;2022-12-10T18:37:02;100003.33;;;-0.62;86.03
59417;BME280;45222;52.458;20.914;2022-12-10T18:40:49;100009.97;;;-0.61;85.98
59417;BME280;45222;52.458;20.914;2022-12-10T18:44:37;100014.15;;;-0.62;86.10
59417;BME280;45222;52.458;20.914;2022-12-10T18:48:26;100008.25;;;-0.66;85.94
59417;BME280;45222;52.458;20.914;2022-12-10T18:52:13;100006.74;;;-0.75;85.79
59417;BME280;45222;52.458;20.914;2022-12-10T18:56:02;100009.08;;;-0.82;86.19
59417;BME280;45222;52.458;20.914;2022-12-10T18:59:49;100002.81;;;-0.84;86.23
59417;BME280;45222;52.458;20.914;2022-12-10T19:03:36;100003.02;;;-0.89;86.29
59417;BME280;45222;52.458;20.914;2022-12-10T19:07:24;100007.75;;;-0.90;86.23
59417;BME280;45222;52.458;20.914;2022-12-10T19:11:11;100020.31;;;-0.90;86.39
59417;BME280;45222;52.458;20.914;2022-12-10T19:14:58;100021.87;;;-0.88;86.32
59417;BME280;45222;52.458;20.914;2022-12-10T19:18:46;100016.68;;;-0.95;86.48
59417;BME280;45222;52.458;20.914;2022-12-10T19:22:33;100017.06;;;-1.01;86.29
59417;BME280;45222;52.458;20.914;2022-12-10T19:26:26;100019.20;;;-1.06;86.52
59417;BME280;45222;52.458;20.914;2022-12-10T19:30:15;100020.61;;;-1.09;86.68
59417;BME280;45222;52.458;20.914;2022-12-10T19:34:01;100015.52;;;-1.05;86.60
59417;BME280;45222;52.458;20.914;2022-12-10T19:37:50;100010.50;;;-1.10;86.66
59417;BME280;45222;52.458;20.914;2022-12-10T19:41:37;100007.75;;;-1.17;86.82
59417;BME280;45222;52.458;20.914;2022-12-10T19:45:25;100015.46;;;-1.23;86.77
59417;BME280;45222;52.458;20.914;2022-12-10T19:49:15;100019.32;;;-1.25;86.89
59417;BME280;45222;52.458;20.914;2022-12-10T19:53:03;100017.56;;;-1.24;86.87
59417;BME280;45222;52.458;20.914;2022-12-10T19:56:50;100024.20;;;-1.23;86.96
59417;BME280;45222;52.458;20.914;2022-12-10T20:00:38;100027.88;;;-1.24;86.80
59417;BME280;45222;52.458;20.914;2022-12-10T20:04:25;100027.35;;;-1.25;86.75
59417;BME280;45222;52.458;20.914;2022-12-10T20:08:14;100025.79;;;-1.29;86.93